sensor_id;sensor_type;location;lat;lon;timestamp;P1;durP1;ratioP1;P2;durP2;ratioP2
26391;SDS011;14572;43.120;1.178;2024-01-15T00:02:26;7.47;;;3.85;;
26391;SDS011;14572;43.120;1.178;2024-01-15T00:04:53;7.38;;;4.03;;
26391;SDS011;14572;43.120;1.178;2024-01-15T00:07:21;6.93;;;4.00;;
26391;SDS011;14572;43.120;1.178;2024-01-15T00:09:48;6.30;;;3.65;;
26391;SDS011;14572;43.120;1.178;2024-01-15T00:12:15;6.07;;;3.85;;
26391;SDS011;14572;43.120;1.178;2024-01-15T00:14:42;6.13;;;4.10;;
26391;SDS011;14572;43.120;1.178;2024-01-15T00:17:09;9.10;;;3.42;;
26391;SDS011;14572;43.120;1.178;2024-01-15T00:19:36;11.43;;;4.63;;
26391;SDS011;14572;43.120;1.178;2024-01-15T00:22:03;7.40;;;3.83;;
26391;SDS011;14572;43.120;1.178;2024-01-15T00:24:31;7.15;;;4.57;;
26391;SDS011;14572;43.120;1.178;2024-01-15T00:26:58;10.32;;;5.82;;
26391;SDS011;14572;43.120;1.178;2024-01-15T00:29:25;10.73;;;5.20;;
26391;SDS011;14572;43.120;1.178;2024-01-15T00:31:52;9.07;;;4.50;;
26391;SDS011;14572;43.120;1.178;2024-01-15T00:34:19;11.43;;;5.53;;
26391;SDS011;14572;43.120;1.178;2024-01-15T00:36:46;11.88;;;5.28;;
26391;SDS011;14572;43.120;1.178;2024-01-15T00:39:13;12.50;;;5.05;;
26391;SDS011;14572;43.120;1.178;2024-01-15T00:41:43;9.65;;;4.75;;
26391;SDS011;14572;43.120;1.178;2024-01-15T00:44:10;7.00;;;4.50;;
26391;SDS011;14572;43.120;1.178;2024-01-15T00:46:41;11.25;;;4.80;;
26391;SDS011;14572;43.120;1.178;2024-01-15T00:49:09;12.25;;;5.55;;
26391;SDS011;14572;43.120;1.178;2024-01-15T00:51:36;11.20;;;5.78;;
26391;SDS011;14572;43.120;1.178;2024-01-15T00:54:03;9.48;;;5.68;;
26391;SDS011;14572;43.120;1.178;2024-01-15T00:56:31;11.32;;;6.28;;
26391;SDS011;14572;43.120;1.178;2024-01-15T00:58:59;10.52;;;5.68;;
26391;SDS011;14572;43.120;1.178;2024-01-15T01:01:27;9.30;;;5.63;;
26391;SDS011;14572;43.120;1.178;2024-01-15T01:03:54;11.60;;;5.43;;
26391;SDS011;14572;43.120;1.178;2024-01-15T01:06:21;8.15;;;5.35;;
26391;SDS011;14572;43.120;1.178;2024-01-15T01:08:48;10.93;;;5.32;;
26391;SDS011;14572;43.120;1.178;2024-01-15T01:11:15;7.68;;;4.97;;
26391;SDS011;14572;43.120;1.178;2024-01-15T01:13:42;10.10;;;5.22;;
26391;SDS011;14572;43.120;1.178;2024-01-15T01:16:10;8.15;;;5.43;;
26391;SDS011;14572;43.120;1.178;2024-01-15T01:18:37;6.63;;;4.47;;
26391;SDS011;14572;43.120;1.178;2024-01-15T01:21:04;12.40;;;5.55;;
26391;SDS011;14572;43.120;1.178;2024-01-15T01:23:31;12.05;;;5.18;;
26391;SDS011;14572;43.120;1.178;2024-01-15T01:25:58;7.47;;;4.88;;
26391;SDS011;14572;43.120;1.178;2024-01-15T01:28:25;11.70;;;5.40;;
26391;SDS011;14572;43.120;1.178;2024-01-15T01:30:52;9.52;;;5.03;;
26391;SDS011;14572;43.120;1.178;2024-01-15T01:33:21;15.07;;;5.25;;
26391;SDS011;14572;43.120;1.178;2024-01-15T01:35:48;11.88;;;5.03;;
26391;SDS011;14572;43.120;1.178;2024-01-15T01:38:15;7.80;;;4.90;;
26391;SDS011;14572;43.120;1.178;2024-01-15T01:40:42;6.50;;;4.55;;
26391;SDS011;14572;43.120;1.178;2024-01-15T01:43:09;11.18;;;4.72;;
26391;SDS011;14572;43.120;1.178;2024-01-15T01:45:36;21.38;;;4.70;;
26391;SDS011;14572;43.120;1.178;2024-01-15T01:48:04;7.18;;;4.43;;
26391;SDS011;14572;43.120;1.178;2024-01-15T01:50:33;8.35;;;3.90;;
26391;SDS011;14572;43.120;1.178;2024-01-15T01:53:00;7.10;;;3.95;;
26391;SDS011;14572;43.120;1.178;2024-01-15T01:55:29;10.90;;;5.68;;
26391;SDS011;14572;43.120;1.178;2024-01-15T01:57:56;11.77;;;4.95;;
26391;SDS011;14572;43.120;1.178;2024-01-15T02:00:23;8.48;;;4.78;;
26391;SDS011;14572;43.120;1.178;2024-01-15T02:02:50;13.15;;;5.82;;
26391;SDS011;14572;43.120;1.178;2024-01-15T02:05:18;10.50;;;5.35;;
26391;SDS011;14572;43.120;1.178;2024-01-15T02:07:48;8.95;;;5.47;;
26391;SDS011;14572;43.120;1.178;2024-01-15T02:10:15;8.93;;;5.13;;
26391;SDS011;14572;43.120;1.178;2024-01-15T02:12:42;16.88;;;6.07;;
26391;SDS011;14572;43.120;1.178;2024-01-15T02:15:10;8.00;;;4.93;;
26391;SDS011;14572;43.120;1.178;2024-01-15T02:20:22;8.48;;;4.90;;
26391;SDS011;14572;43.120;1.178;2024-01-15T02:22:51;9.80;;;4.57;;
26391;SDS011;14572;43.120;1.178;2024-01-15T02:25:19;11.50;;;4.72;;
26391;SDS011;14572;43.120;1.178;2024-01-15T02:27:47;91.72;;;7.20;;
26391;SDS011;14572;43.120;1.178;2024-01-15T02:30:14;11.20;;;5.45;;
26391;SDS011;14572;43.120;1.178;2024-01-15T02:32:42;10.98;;;5.40;;
26391;SDS011;14572;43.120;1.178;2024-01-15T02:35:09;7.75;;;5.10;;
26391;SDS011;14572;43.120;1.178;2024-01-15T02:37:36;7.20;;;5.10;;
26391;SDS011;14572;43.120;1.178;2024-01-15T02:40:03;9.82;;;4.72;;
26391;SDS011;14572;43.120;1.178;2024-01-15T02:42:32;9.07;;;4.80;;
26391;SDS011;14572;43.120;1.178;2024-01-15T02:44:59;7.32;;;4.22;;
26391;SDS011;14572;43.120;1.178;2024-01-15T02:47:26;5.75;;;4.00;;
26391;SDS011;14572;43.120;1.178;2024-01-15T02:49:53;6.78;;;3.78;;
26391;SDS011;14572;43.120;1.178;2024-01-15T02:52:20;7.32;;;4.10;;
26391;SDS011;14572;43.120;1.178;2024-01-15T02:54:47;10.90;;;4.88;;
26391;SDS011;14572;43.120;1.178;2024-01-15T02:57:14;9.18;;;4.78;;
26391;SDS011;14572;43.120;1.178;2024-01-15T02:59:42;32.30;;;5.00;;
26391;SDS011;14572;43.120;1.178;2024-01-15T03:02:09;25.95;;;5.38;;
26391;SDS011;14572;43.120;1.178;2024-01-15T03:04:36;5.65;;;4.18;;
26391;SDS011;14572;43.120;1.178;2024-01-15T03:07:03;7.20;;;4.28;;
26391;SDS011;14572;43.120;1.178;2024-01-15T03:09:30;201.40;;;6.50;;
26391;SDS011;14572;43.120;1.178;2024-01-15T03:11:57;396.40;;;8.43;;
26391;SDS011;14572;43.120;1.178;2024-01-15T03:14:24;5.65;;;4.10;;
26391;SDS011;14572;43.120;1.178;2024-01-15T03:16:52;7.05;;;4.25;;
26391;SDS011;14572;43.120;1.178;2024-01-15T03:19:20;7.65;;;3.88;;
26391;SDS011;14572;43.120;1.178;2024-01-15T03:21:47;6.07;;;3.17;;
26391;SDS011;14572;43.120;1.178;2024-01-15T03:24:14;14.20;;;3.63;;
26391;SDS011;14572;43.120;1.178;2024-01-15T03:26:41;35.28;;;4.80;;
26391;SDS011;14572;43.120;1.178;2024-01-15T03:29:08;34.70;;;4.57;;
26391;SDS011;14572;43.120;1.178;2024-01-15T03:31:34;11.27;;;4.47;;
26391;SDS011;14572;43.120;1.178;2024-01-15T03:34:03;7.63;;;4.50;;
26391;SDS011;14572;43.120;1.178;2024-01-15T03:36:30;8.95;;;4.30;;
26391;SDS011;14572;43.120;1.178;2024-01-15T03:38:57;155.20;;;7.43;;
26391;SDS011;14572;43.120;1.178;2024-01-15T03:41:24;8.93;;;5.75;;
26391;SDS011;14572;43.120;1.178;2024-01-15T03:43:51;9.88;;;5.45;;
26391;SDS011;14572;43.120;1.178;2024-01-15T03:46:18;7.22;;;4.78;;
26391;SDS011;14572;43.120;1.178;2024-01-15T03:48:45;8.18;;;4.68;;
26391;SDS011;14572;43.120;1.178;2024-01-15T03:51:15;6.78;;;4.28;;
26391;SDS011;14572;43.120;1.178;2024-01-15T03:53:42;5.45;;;3.55;;
26391;SDS011;14572;43.120;1.178;2024-01-15T03:56:09;6.47;;;4.53;;
26391;SDS011;14572;43.120;1.178;2024-01-15T03:58:36;7.43;;;3.45;;
26391;SDS011;14572;43.120;1.178;2024-01-15T04:01:03;5.32;;;3.55;;
26391;SDS011;14572;43.120;1.178;2024-01-15T04:03:30;5.35;;;2.95;;
26391;SDS011;14572;43.120;1.178;2024-01-15T04:05:57;3.60;;;2.50;;
26391;SDS011;14572;43.120;1.178;2024-01-15T04:08:25;6.28;;;2.47;;
26391;SDS011;14572;43.120;1.178;2024-01-15T04:10:52;7.97;;;3.28;;
26391;SDS011;14572;43.120;1.178;2024-01-15T04:13:20;7.78;;;2.63;;
26391;SDS011;14572;43.120;1.178;2024-01-15T04:15:47;7.03;;;2.40;;
26391;SDS011;14572;43.120;1.178;2024-01-15T04:18:15;4.60;;;2.58;;
26391;SDS011;14572;43.120;1.178;2024-01-15T04:20:42;3.92;;;2.40;;
26391;SDS011;14572;43.120;1.178;2024-01-15T04:23:09;3.55;;;2.10;;
26391;SDS011;14572;43.120;1.178;2024-01-15T04:25:37;7.03;;;2.72;;
26391;SDS011;14572;43.120;1.178;2024-01-15T04:28:07;3.55;;;2.22;;
26391;SDS011;14572;43.120;1.178;2024-01-15T04:30:34;3.47;;;1.85;;
26391;SDS011;14572;43.120;1.178;2024-01-15T04:33:01;6.82;;;2.10;;
26391;SDS011;14572;43.120;1.178;2024-01-15T04:35:28;9.90;;;2.10;;
26391;SDS011;14572;43.120;1.178;2024-01-15T04:37:56;3.60;;;2.15;;
26391;SDS011;14572;43.120;1.178;2024-01-15T04:40:23;7.88;;;2.45;;
26391;SDS011;14572;43.120;1.178;2024-01-15T04:42:54;4.40;;;2.10;;
26391;SDS011;14572;43.120;1.178;2024-01-15T04:45:21;2.60;;;1.98;;
26391;SDS011;14572;43.120;1.178;2024-01-15T04:47:53;19.73;;;2.97;;
26391;SDS011;14572;43.120;1.178;2024-01-15T04:50:20;2.85;;;1.90;;
26391;SDS011;14572;43.120;1.178;2024-01-15T04:52:48;12.43;;;2.72;;
26391;SDS011;14572;43.120;1.178;2024-01-15T04:55:14;15.98;;;2.30;;
26391;SDS011;14572;43.120;1.178;2024-01-15T04:57:40;6.18;;;2.20;;
26391;SDS011;14572;43.120;1.178;2024-01-15T05:00:10;14.02;;;2.60;;
26391;SDS011;14572;43.120;1.178;2024-01-15T05:02:39;5.95;;;2.13;;
26391;SDS011;14572;43.120;1.178;2024-01-15T05:05:06;5.32;;;2.30;;
26391;SDS011;14572;43.120;1.178;2024-01-15T05:07:33;17.70;;;2.55;;
26391;SDS011;14572;43.120;1.178;2024-01-15T05:10:00;13.18;;;2.70;;
26391;SDS011;14572;43.120;1.178;2024-01-15T05:12:26;3.60;;;2.30;;
26391;SDS011;14572;43.120;1.178;2024-01-15T05:14:53;5.60;;;2.10;;
26391;SDS011;14572;43.120;1.178;2024-01-15T05:17:22;9.32;;;1.80;;
26391;SDS011;14572;43.120;1.178;2024-01-15T05:19:49;2.53;;;1.90;;
26391;SDS011;14572;43.120;1.178;2024-01-15T05:22:16;5.30;;;1.63;;
26391;SDS011;14572;43.120;1.178;2024-01-15T05:24:43;3.75;;;2.05;;
26391;SDS011;14572;43.120;1.178;2024-01-15T05:27:10;2.85;;;2.20;;
26391;SDS011;14572;43.120;1.178;2024-01-15T05:29:37;5.40;;;2.00;;
26391;SDS011;14572;43.120;1.178;2024-01-15T05:32:03;10.40;;;2.10;;
26391;SDS011;14572;43.120;1.178;2024-01-15T05:34:32;134.35;;;3.53;;
26391;SDS011;14572;43.120;1.178;2024-01-15T05:36:59;3.13;;;1.60;;
26391;SDS011;14572;43.120;1.178;2024-01-15T05:39:26;3.70;;;1.73;;
26391;SDS011;14572;43.120;1.178;2024-01-15T05:41:53;3.58;;;1.55;;
26391;SDS011;14572;43.120;1.178;2024-01-15T05:44:20;1.67;;;1.38;;
26391;SDS011;14572;43.120;1.178;2024-01-15T05:46:47;5.82;;;1.25;;
26391;SDS011;14572;43.120;1.178;2024-01-15T05:49:14;1.60;;;1.23;;
26391;SDS011;14572;43.120;1.178;2024-01-15T05:51:43;1.27;;;1.08;;
26391;SDS011;14572;43.120;1.178;2024-01-15T05:54:10;1.88;;;1.40;;
26391;SDS011;14572;43.120;1.178;2024-01-15T05:56:37;1.30;;;1.00;;
26391;SDS011;14572;43.120;1.178;2024-01-15T05:59:04;5.75;;;1.00;;
26391;SDS011;14572;43.120;1.178;2024-01-15T06:01:31;1.40;;;1.15;;
26391;SDS011;14572;43.120;1.178;2024-01-15T06:03:57;2.25;;;1.30;;
26391;SDS011;14572;43.120;1.178;2024-01-15T06:06:24;2.42;;;1.25;;
26391;SDS011;14572;43.120;1.178;2024-01-15T06:08:53;1.63;;;1.30;;
26391;SDS011;14572;43.120;1.178;2024-01-15T06:11:20;3.15;;;1.15;;
26391;SDS011;14572;43.120;1.178;2024-01-15T06:13:47;4.18;;;1.40;;
26391;SDS011;14572;43.120;1.178;2024-01-15T06:16:14;4.43;;;0.90;;
26391;SDS011;14572;43.120;1.178;2024-01-15T06:18:41;4.43;;;1.33;;
26391;SDS011;14572;43.120;1.178;2024-01-15T06:21:07;3.47;;;1.40;;
26391;SDS011;14572;43.120;1.178;2024-01-15T06:23:36;7.80;;;1.60;;
26391;SDS011;14572;43.120;1.178;2024-01-15T06:26:05;2.58;;;1.20;;
26391;SDS011;14572;43.120;1.178;2024-01-15T06:28:32;8.50;;;1.40;;
26391;SDS011;14572;43.120;1.178;2024-01-15T06:30:59;3.30;;;1.42;;
26391;SDS011;14572;43.120;1.178;2024-01-15T06:33:26;2.60;;;1.42;;
26391;SDS011;14572;43.120;1.178;2024-01-15T06:35:52;6.53;;;1.50;;
26391;SDS011;14572;43.120;1.178;2024-01-15T06:38:19;4.32;;;1.10;;
26391;SDS011;14572;43.120;1.178;2024-01-15T06:40:46;1.17;;;0.90;;
26391;SDS011;14572;43.120;1.178;2024-01-15T06:43:15;1.75;;;1.25;;
26391;SDS011;14572;43.120;1.178;2024-01-15T06:45:42;2.80;;;0.70;;
26391;SDS011;14572;43.120;1.178;2024-01-15T06:48:09;2.85;;;0.80;;
26391;SDS011;14572;43.120;1.178;2024-01-15T06:50:37;17.10;;;1.50;;
26391;SDS011;14572;43.120;1.178;2024-01-15T06:53:04;9.93;;;1.50;;
26391;SDS011;14572;43.120;1.178;2024-01-15T06:55:31;5.38;;;1.30;;
26391;SDS011;14572;43.120;1.178;2024-01-15T06:57:58;3.60;;;1.25;;
26391;SDS011;14572;43.120;1.178;2024-01-15T07:00:27;2.25;;;1.15;;
26391;SDS011;14572;43.120;1.178;2024-01-15T07:02:54;4.07;;;1.10;;
26391;SDS011;14572;43.120;1.178;2024-01-15T07:05:21;6.07;;;1.23;;
26391;SDS011;14572;43.120;1.178;2024-01-15T07:07:48;4.88;;;1.30;;
26391;SDS011;14572;43.120;1.178;2024-01-15T07:10:15;3.38;;;1.10;;
26391;SDS011;14572;43.120;1.178;2024-01-15T07:12:42;4.03;;;1.30;;
26391;SDS011;14572;43.120;1.178;2024-01-15T07:15:09;8.65;;;1.83;;
26391;SDS011;14572;43.120;1.178;2024-01-15T07:17:37;5.28;;;1.35;;
26391;SDS011;14572;43.120;1.178;2024-01-15T07:20:06;9.95;;;1.15;;
26391;SDS011;14572;43.120;1.178;2024-01-15T07:22:35;1.58;;;1.15;;
26391;SDS011;14572;43.120;1.178;2024-01-15T07:25:02;2.70;;;1.10;;
26391;SDS011;14572;43.120;1.178;2024-01-15T07:27:30;10.45;;;1.02;;
26391;SDS011;14572;43.120;1.178;2024-01-15T07:29:57;2.60;;;1.10;;
26391;SDS011;14572;43.120;1.178;2024-01-15T07:32:24;7.32;;;1.77;;
26391;SDS011;14572;43.120;1.178;2024-01-15T07:34:52;6.10;;;2.30;;
26391;SDS011;14572;43.120;1.178;2024-01-15T07:37:19;9.45;;;2.53;;
26391;SDS011;14572;43.120;1.178;2024-01-15T07:39:48;2.85;;;1.25;;
26391;SDS011;14572;43.120;1.178;2024-01-15T07:42:15;7.88;;;1.23;;
26391;SDS011;14572;43.120;1.178;2024-01-15T07:44:42;6.63;;;1.00;;
26391;SDS011;14572;43.120;1.178;2024-01-15T07:47:10;11.38;;;1.25;;
26391;SDS011;14572;43.120;1.178;2024-01-15T07:49:37;3.97;;;1.00;;
26391;SDS011;14572;43.120;1.178;2024-01-15T07:52:05;4.20;;;1.17;;
26391;SDS011;14572;43.120;1.178;2024-01-15T07:54:32;6.03;;;1.30;;
26391;SDS011;14572;43.120;1.178;2024-01-15T07:57:00;4.68;;;1.30;;
26391;SDS011;14572;43.120;1.178;2024-01-15T07:59:28;3.45;;;1.33;;
26391;SDS011;14572;43.120;1.178;2024-01-15T08:01:55;6.40;;;1.33;;
26391;SDS011;14572;43.120;1.178;2024-01-15T08:04:22;8.05;;;1.10;;
26391;SDS011;14572;43.120;1.178;2024-01-15T08:06:49;4.00;;;0.80;;
26391;SDS011;14572;43.120;1.178;2024-01-15T08:09:17;2.20;;;1.17;;
26391;SDS011;14572;43.120;1.178;2024-01-15T08:11:44;138.27;;;3.30;;
26391;SDS011;14572;43.120;1.178;2024-01-15T08:14:11;76.47;;;2.03;;
26391;SDS011;14572;43.120;1.178;2024-01-15T08:16:38;1.30;;;1.05;;
26391;SDS011;14572;43.120;1.178;2024-01-15T08:19:05;8.27;;;1.02;;
26391;SDS011;14572;43.120;1.178;2024-01-15T08:21:32;6.13;;;1.15;;
26391;SDS011;14572;43.120;1.178;2024-01-15T08:24:00;23.08;;;1.60;;
26391;SDS011;14572;43.120;1.178;2024-01-15T08:26:28;4.63;;;0.77;;
26391;SDS011;14572;43.120;1.178;2024-01-15T08:28:56;2.35;;;1.20;;
26391;SDS011;14572;43.120;1.178;2024-01-15T08:31:23;7.60;;;2.20;;
26391;SDS011;14572;43.120;1.178;2024-01-15T08:33:50;4.40;;;1.23;;
26391;SDS011;14572;43.120;1.178;2024-01-15T08:36:17;4.50;;;1.23;;
26391;SDS011;14572;43.120;1.178;2024-01-15T08:38:44;3.97;;;1.15;;
26391;SDS011;14572;43.120;1.178;2024-01-15T08:41:11;3.33;;;0.95;;
26391;SDS011;14572;43.120;1.178;2024-01-15T08:43:40;1.60;;;0.93;;
26391;SDS011;14572;43.120;1.178;2024-01-15T08:46:07;2.60;;;1.25;;
26391;SDS011;14572;43.120;1.178;2024-01-15T08:48:34;92.80;;;2.92;;
26391;SDS011;14572;43.120;1.178;2024-01-15T08:51:01;21.92;;;1.45;;
26391;SDS011;14572;43.120;1.178;2024-01-15T08:53:29;15.30;;;1.45;;
26391;SDS011;14572;43.120;1.178;2024-01-15T08:55:56;4.93;;;0.98;;
26391;SDS011;14572;43.120;1.178;2024-01-15T08:58:23;2.45;;;1.10;;
26391;SDS011;14572;43.120;1.178;2024-01-15T09:00:52;1.83;;;1.40;;
26391;SDS011;14572;43.120;1.178;2024-01-15T09:03:19;67.25;;;2.17;;
26391;SDS011;14572;43.120;1.178;2024-01-15T09:05:46;7.65;;;1.70;;
26391;SDS011;14572;43.120;1.178;2024-01-15T09:08:15;202.00;;;7.53;;
26391;SDS011;14572;43.120;1.178;2024-01-15T09:10:42;69.28;;;7.03;;
26391;SDS011;14572;43.120;1.178;2024-01-15T09:13:09;14.15;;;8.25;;
26391;SDS011;14572;43.120;1.178;2024-01-15T09:15:36;16.30;;;9.75;;
26391;SDS011;14572;43.120;1.178;2024-01-15T09:18:04;12.20;;;8.15;;
26391;SDS011;14572;43.120;1.178;2024-01-15T09:20:32;6.07;;;3.22;;
26391;SDS011;14572;43.120;1.178;2024-01-15T09:22:58;12.55;;;4.78;;
26391;SDS011;14572;43.120;1.178;2024-01-15T09:25:25;36.40;;;7.93;;
26391;SDS011;14572;43.120;1.178;2024-01-15T09:27:52;11.93;;;6.90;;
26391;SDS011;14572;43.120;1.178;2024-01-15T09:30:19;10.70;;;3.58;;
26391;SDS011;14572;43.120;1.178;2024-01-15T09:32:46;14.57;;;5.00;;
26391;SDS011;14572;43.120;1.178;2024-01-15T09:35:15;22.08;;;5.60;;
26391;SDS011;14572;43.120;1.178;2024-01-15T09:37:42;29.83;;;9.30;;
26391;SDS011;14572;43.120;1.178;2024-01-15T09:40:11;21.80;;;6.95;;
26391;SDS011;14572;43.120;1.178;2024-01-15T09:42:39;21.05;;;9.10;;
26391;SDS011;14572;43.120;1.178;2024-01-15T09:45:07;18.83;;;6.70;;
26391;SDS011;14572;43.120;1.178;2024-01-15T09:47:35;17.02;;;4.85;;
26391;SDS011;14572;43.120;1.178;2024-01-15T09:50:02;14.07;;;2.50;;
26391;SDS011;14572;43.120;1.178;2024-01-15T09:52:32;11.27;;;4.30;;
26391;SDS011;14572;43.120;1.178;2024-01-15T09:55:00;19.10;;;3.97;;
26391;SDS011;14572;43.120;1.178;2024-01-15T09:57:28;9.07;;;5.85;;
26391;SDS011;14572;43.120;1.178;2024-01-15T09:59:56;10.57;;;4.30;;
26391;SDS011;14572;43.120;1.178;2024-01-15T10:02:24;7.78;;;3.65;;
26391;SDS011;14572;43.120;1.178;2024-01-15T10:04:51;4.00;;;2.17;;
26391;SDS011;14572;43.120;1.178;2024-01-15T10:07:19;3.58;;;2.00;;
26391;SDS011;14572;43.120;1.178;2024-01-15T10:09:48;3.75;;;1.88;;
26391;SDS011;14572;43.120;1.178;2024-01-15T10:12:15;5.40;;;2.70;;
26391;SDS011;14572;43.120;1.178;2024-01-15T10:14:42;4.05;;;1.77;;
26391;SDS011;14572;43.120;1.178;2024-01-15T10:17:13;3.13;;;1.40;;
26391;SDS011;14572;43.120;1.178;2024-01-15T10:19:40;5.82;;;1.90;;
26391;SDS011;14572;43.120;1.178;2024-01-15T10:22:07;3.15;;;1.90;;
26391;SDS011;14572;43.120;1.178;2024-01-15T10:24:35;6.57;;;2.20;;
26391;SDS011;14572;43.120;1.178;2024-01-15T10:27:08;8.30;;;2.80;;
26391;SDS011;14572;43.120;1.178;2024-01-15T10:29:35;7.88;;;4.55;;
26391;SDS011;14572;43.120;1.178;2024-01-15T10:32:03;11.55;;;4.95;;
26391;SDS011;14572;43.120;1.178;2024-01-15T10:34:32;11.18;;;4.63;;
26391;SDS011;14572;43.120;1.178;2024-01-15T10:36:59;9.18;;;4.82;;
26391;SDS011;14572;43.120;1.178;2024-01-15T10:39:26;7.45;;;4.35;;
26391;SDS011;14572;43.120;1.178;2024-01-15T10:41:53;10.55;;;5.00;;
26391;SDS011;14572;43.120;1.178;2024-01-15T10:44:21;8.98;;;5.05;;
26391;SDS011;14572;43.120;1.178;2024-01-15T10:46:48;7.55;;;2.80;;
26391;SDS011;14572;43.120;1.178;2024-01-15T10:49:16;2.85;;;1.65;;
26391;SDS011;14572;43.120;1.178;2024-01-15T10:51:44;3.20;;;2.30;;
26391;SDS011;14572;43.120;1.178;2024-01-15T10:54:11;5.10;;;3.78;;
26391;SDS011;14572;43.120;1.178;2024-01-15T10:56:39;4.82;;;3.13;;
26391;SDS011;14572;43.120;1.178;2024-01-15T10:59:05;4.15;;;3.47;;
26391;SDS011;14572;43.120;1.178;2024-01-15T11:01:37;5.88;;;2.90;;
26391;SDS011;14572;43.120;1.178;2024-01-15T11:04:04;4.25;;;2.90;;
26391;SDS011;14572;43.120;1.178;2024-01-15T11:06:40;4.15;;;2.30;;
26391;SDS011;14572;43.120;1.178;2024-01-15T11:09:08;2.42;;;1.00;;
26391;SDS011;14572;43.120;1.178;2024-01-15T11:11:35;3.55;;;1.00;;
26391;SDS011;14572;43.120;1.178;2024-01-15T11:14:03;2.15;;;0.98;;
26391;SDS011;14572;43.120;1.178;2024-01-15T11:19:21;4.35;;;0.80;;
26391;SDS011;14572;43.120;1.178;2024-01-15T11:21:48;4.43;;;1.35;;
26391;SDS011;14572;43.120;1.178;2024-01-15T11:24:33;8.73;;;4.63;;
26391;SDS011;14572;43.120;1.178;2024-01-15T11:27:00;3.72;;;1.70;;
26391;SDS011;14572;43.120;1.178;2024-01-15T11:29:31;5.05;;;1.50;;
26391;SDS011;14572;43.120;1.178;2024-01-15T11:32:01;10.02;;;1.63;;
26391;SDS011;14572;43.120;1.178;2024-01-15T11:37:23;5.00;;;2.05;;
26391;SDS011;14572;43.120;1.178;2024-01-15T11:39:51;1.92;;;1.25;;
26391;SDS011;14572;43.120;1.178;2024-01-15T11:42:19;3.83;;;1.83;;
26391;SDS011;14572;43.120;1.178;2024-01-15T11:44:46;8.40;;;4.15;;
26391;SDS011;14572;43.120;1.178;2024-01-15T11:47:15;10.50;;;6.10;;
26391;SDS011;14572;43.120;1.178;2024-01-15T11:52:34;15.30;;;12.00;;
26391;SDS011;14572;43.120;1.178;2024-01-15T11:55:06;9.55;;;5.45;;
26391;SDS011;14572;43.120;1.178;2024-01-15T11:57:40;10.35;;;5.45;;
26391;SDS011;14572;43.120;1.178;2024-01-15T12:00:08;9.02;;;5.35;;
26391;SDS011;14572;43.120;1.178;2024-01-15T12:02:38;7.28;;;4.55;;
26391;SDS011;14572;43.120;1.178;2024-01-15T12:05:06;10.07;;;3.83;;
26391;SDS011;14572;43.120;1.178;2024-01-15T12:07:34;6.57;;;3.58;;
26391;SDS011;14572;43.120;1.178;2024-01-15T12:10:01;6.78;;;3.97;;
26391;SDS011;14572;43.120;1.178;2024-01-15T12:12:32;14.98;;;8.32;;
26391;SDS011;14572;43.120;1.178;2024-01-15T12:15:04;11.25;;;4.72;;
26391;SDS011;14572;43.120;1.178;2024-01-15T12:17:31;7.10;;;3.85;;
26391;SDS011;14572;43.120;1.178;2024-01-15T12:20:00;6.20;;;3.35;;
26391;SDS011;14572;43.120;1.178;2024-01-15T12:22:27;8.30;;;3.85;;
26391;SDS011;14572;43.120;1.178;2024-01-15T12:24:54;5.82;;;3.00;;
26391;SDS011;14572;43.120;1.178;2024-01-15T12:27:22;4.35;;;2.92;;
26391;SDS011;14572;43.120;1.178;2024-01-15T12:29:49;8.50;;;3.90;;
26391;SDS011;14572;43.120;1.178;2024-01-15T12:32:16;7.60;;;3.97;;
26391;SDS011;14572;43.120;1.178;2024-01-15T12:34:45;7.32;;;3.05;;
26391;SDS011;14572;43.120;1.178;2024-01-15T12:37:14;8.15;;;3.60;;
26391;SDS011;14572;43.120;1.178;2024-01-15T12:39:42;5.30;;;2.70;;
26391;SDS011;14572;43.120;1.178;2024-01-15T12:42:09;5.35;;;2.85;;
26391;SDS011;14572;43.120;1.178;2024-01-15T12:44:36;6.00;;;3.03;;
26391;SDS011;14572;43.120;1.178;2024-01-15T12:47:04;5.35;;;3.53;;
26391;SDS011;14572;43.120;1.178;2024-01-15T12:49:31;3.83;;;2.28;;
26391;SDS011;14572;43.120;1.178;2024-01-15T12:51:59;4.32;;;2.35;;
26391;SDS011;14572;43.120;1.178;2024-01-15T12:54:27;4.95;;;2.85;;
26391;SDS011;14572;43.120;1.178;2024-01-15T12:56:54;6.43;;;2.33;;
26391;SDS011;14572;43.120;1.178;2024-01-15T12:59:21;6.93;;;2.95;;
26391;SDS011;14572;43.120;1.178;2024-01-15T13:01:48;21.42;;;10.35;;
26391;SDS011;14572;43.120;1.178;2024-01-15T13:04:20;14.65;;;7.20;;
26391;SDS011;14572;43.120;1.178;2024-01-15T13:06:48;14.95;;;5.88;;
26391;SDS011;14572;43.120;1.178;2024-01-15T13:09:16;10.07;;;4.80;;
26391;SDS011;14572;43.120;1.178;2024-01-15T13:11:44;13.77;;;5.75;;
26391;SDS011;14572;43.120;1.178;2024-01-15T13:14:12;5.47;;;2.42;;
26391;SDS011;14572;43.120;1.178;2024-01-15T13:16:39;5.60;;;2.90;;
26391;SDS011;14572;43.120;1.178;2024-01-15T13:19:07;6.72;;;2.13;;
26391;SDS011;14572;43.120;1.178;2024-01-15T13:21:36;9.18;;;3.50;;
26391;SDS011;14572;43.120;1.178;2024-01-15T13:24:03;7.07;;;2.83;;
26391;SDS011;14572;43.120;1.178;2024-01-15T13:26:31;5.90;;;2.63;;
26391;SDS011;14572;43.120;1.178;2024-01-15T13:28:59;6.82;;;2.70;;
26391;SDS011;14572;43.120;1.178;2024-01-15T13:31:27;6.65;;;2.28;;
26391;SDS011;14572;43.120;1.178;2024-01-15T13:33:54;4.40;;;1.52;;
26391;SDS011;14572;43.120;1.178;2024-01-15T13:36:21;4.47;;;1.80;;
26391;SDS011;14572;43.120;1.178;2024-01-15T13:38:48;4.20;;;1.52;;
26391;SDS011;14572;43.120;1.178;2024-01-15T13:41:16;2.80;;;1.67;;
26391;SDS011;14572;43.120;1.178;2024-01-15T13:43:44;7.15;;;1.45;;
26391;SDS011;14572;43.120;1.178;2024-01-15T13:46:16;4.15;;;1.80;;
26391;SDS011;14572;43.120;1.178;2024-01-15T13:48:43;3.33;;;1.70;;
26391;SDS011;14572;43.120;1.178;2024-01-15T13:51:10;5.15;;;1.60;;
26391;SDS011;14572;43.120;1.178;2024-01-15T13:53:37;7.82;;;1.88;;
26391;SDS011;14572;43.120;1.178;2024-01-15T13:56:05;5.85;;;1.98;;
26391;SDS011;14572;43.120;1.178;2024-01-15T13:58:32;3.92;;;1.83;;
26391;SDS011;14572;43.120;1.178;2024-01-15T14:00:59;3.28;;;1.55;;
26391;SDS011;14572;43.120;1.178;2024-01-15T14:03:30;5.50;;;2.08;;
26391;SDS011;14572;43.120;1.178;2024-01-15T14:05:57;3.25;;;1.70;;
26391;SDS011;14572;43.120;1.178;2024-01-15T14:08:24;4.10;;;1.85;;
26391;SDS011;14572;43.120;1.178;2024-01-15T14:10:51;2.92;;;2.03;;
26391;SDS011;14572;43.120;1.178;2024-01-15T14:13:19;4.93;;;2.65;;
26391;SDS011;14572;43.120;1.178;2024-01-15T14:15:46;7.45;;;2.72;;
26391;SDS011;14572;43.120;1.178;2024-01-15T14:18:15;6.50;;;3.03;;
26391;SDS011;14572;43.120;1.178;2024-01-15T14:20:44;9.38;;;3.78;;
26391;SDS011;14572;43.120;1.178;2024-01-15T14:23:11;5.45;;;3.10;;
26391;SDS011;14572;43.120;1.178;2024-01-15T14:25:39;9.23;;;3.30;;
26391;SDS011;14572;43.120;1.178;2024-01-15T14:28:06;7.00;;;3.80;;
26391;SDS011;14572;43.120;1.178;2024-01-15T14:30:33;7.57;;;3.63;;
26391;SDS011;14572;43.120;1.178;2024-01-15T14:33:00;9.13;;;3.90;;
26391;SDS011;14572;43.120;1.178;2024-01-15T14:35:27;7.38;;;4.50;;
26391;SDS011;14572;43.120;1.178;2024-01-15T14:37:56;7.55;;;4.32;;
26391;SDS011;14572;43.120;1.178;2024-01-15T14:40:23;8.02;;;4.43;;
26391;SDS011;14572;43.120;1.178;2024-01-15T14:42:51;12.65;;;4.68;;
26391;SDS011;14572;43.120;1.178;2024-01-15T14:45:18;5.82;;;3.92;;
26391;SDS011;14572;43.120;1.178;2024-01-15T14:47:45;8.18;;;4.32;;
26391;SDS011;14572;43.120;1.178;2024-01-15T14:50:12;12.95;;;4.60;;
26391;SDS011;14572;43.120;1.178;2024-01-15T14:52:39;11.93;;;4.70;;
26391;SDS011;14572;43.120;1.178;2024-01-15T14:55:09;9.88;;;4.50;;
26391;SDS011;14572;43.120;1.178;2024-01-15T14:57:36;10.98;;;4.60;;